sensor_id;sensor_type;location;lat;lon;timestamp;P1;durP1;ratioP1;P2;durP2;ratioP2
15645;SDS011;7922;43.622;1.476;2024-02-15T00:01:44;6.00;;;3.90;;
15645;SDS011;7922;43.622;1.476;2024-02-15T00:04:10;4.07;;;3.60;;
15645;SDS011;7922;43.622;1.476;2024-02-15T00:06:35;5.63;;;4.00;;
15645;SDS011;7922;43.622;1.476;2024-02-15T00:09:00;4.33;;;3.93;;
15645;SDS011;7922;43.622;1.476;2024-02-15T00:11:25;4.83;;;3.80;;
15645;SDS011;7922;43.622;1.476;2024-02-15T00:13:51;5.80;;;4.20;;
15645;SDS011;7922;43.622;1.476;2024-02-15T00:16:16;4.20;;;3.60;;
15645;SDS011;7922;43.622;1.476;2024-02-15T00:18:41;5.00;;;3.53;;
15645;SDS011;7922;43.622;1.476;2024-02-15T00:21:06;5.43;;;3.20;;
15645;SDS011;7922;43.622;1.476;2024-02-15T00:23:32;5.13;;;3.00;;
15645;SDS011;7922;43.622;1.476;2024-02-15T00:25:57;2.80;;;2.50;;
15645;SDS011;7922;43.622;1.476;2024-02-15T00:28:23;3.07;;;2.60;;
15645;SDS011;7922;43.622;1.476;2024-02-15T00:30:48;3.30;;;2.83;;
15645;SDS011;7922;43.622;1.476;2024-02-15T00:33:13;4.27;;;2.77;;
15645;SDS011;7922;43.622;1.476;2024-02-15T00:35:38;2.80;;;2.40;;
15645;SDS011;7922;43.622;1.476;2024-02-15T00:38:04;2.23;;;2.03;;
15645;SDS011;7922;43.622;1.476;2024-02-15T00:40:29;3.10;;;2.10;;
15645;SDS011;7922;43.622;1.476;2024-02-15T00:42:54;4.13;;;1.97;;
15645;SDS011;7922;43.622;1.476;2024-02-15T00:45:19;3.77;;;2.03;;
15645;SDS011;7922;43.622;1.476;2024-02-15T00:47:45;2.73;;;1.87;;
15645;SDS011;7922;43.622;1.476;2024-02-15T00:50:12;2.30;;;1.73;;
15645;SDS011;7922;43.622;1.476;2024-02-15T00:52:37;2.37;;;1.97;;
15645;SDS011;7922;43.622;1.476;2024-02-15T00:55:03;3.53;;;1.90;;
15645;SDS011;7922;43.622;1.476;2024-02-15T00:57:28;2.73;;;1.90;;
15645;SDS011;7922;43.622;1.476;2024-02-15T00:59:54;2.60;;;2.40;;
15645;SDS011;7922;43.622;1.476;2024-02-15T01:02:19;2.77;;;2.30;;
15645;SDS011;7922;43.622;1.476;2024-02-15T01:04:44;3.33;;;2.23;;
15645;SDS011;7922;43.622;1.476;2024-02-15T01:07:09;6.47;;;2.60;;
15645;SDS011;7922;43.622;1.476;2024-02-15T01:09:35;4.40;;;2.87;;
15645;SDS011;7922;43.622;1.476;2024-02-15T01:12:00;3.30;;;2.30;;
15645;SDS011;7922;43.622;1.476;2024-02-15T01:14:25;3.83;;;2.53;;
15645;SDS011;7922;43.622;1.476;2024-02-15T01:16:51;3.77;;;2.80;;
15645;SDS011;7922;43.622;1.476;2024-02-15T01:19:16;4.33;;;2.80;;
15645;SDS011;7922;43.622;1.476;2024-02-15T01:21:41;4.33;;;3.20;;
15645;SDS011;7922;43.622;1.476;2024-02-15T01:24:06;4.47;;;3.03;;
15645;SDS011;7922;43.622;1.476;2024-02-15T01:26:32;4.30;;;3.00;;
15645;SDS011;7922;43.622;1.476;2024-02-15T01:28:57;4.53;;;3.17;;
15645;SDS011;7922;43.622;1.476;2024-02-15T01:31:23;7.20;;;4.43;;
15645;SDS011;7922;43.622;1.476;2024-02-15T01:33:48;5.30;;;3.97;;
15645;SDS011;7922;43.622;1.476;2024-02-15T01:36:16;4.67;;;3.53;;
15645;SDS011;7922;43.622;1.476;2024-02-15T01:38:42;5.20;;;3.60;;
15645;SDS011;7922;43.622;1.476;2024-02-15T01:41:09;5.40;;;3.73;;
15645;SDS011;7922;43.622;1.476;2024-02-15T01:43:37;5.27;;;3.90;;
15645;SDS011;7922;43.622;1.476;2024-02-15T01:46:08;4.90;;;4.00;;
15645;SDS011;7922;43.622;1.476;2024-02-15T01:48:39;5.80;;;4.30;;
15645;SDS011;7922;43.622;1.476;2024-02-15T01:51:06;5.33;;;4.10;;
15645;SDS011;7922;43.622;1.476;2024-02-15T01:53:34;6.20;;;4.40;;
15645;SDS011;7922;43.622;1.476;2024-02-15T01:56:00;4.23;;;3.60;;
15645;SDS011;7922;43.622;1.476;2024-02-15T01:58:26;7.73;;;4.57;;
15645;SDS011;7922;43.622;1.476;2024-02-15T02:00:52;5.90;;;4.23;;
15645;SDS011;7922;43.622;1.476;2024-02-15T02:03:18;5.77;;;4.10;;
15645;SDS011;7922;43.622;1.476;2024-02-15T02:05:46;9.57;;;3.87;;
15645;SDS011;7922;43.622;1.476;2024-02-15T02:08:12;7.23;;;4.30;;
15645;SDS011;7922;43.622;1.476;2024-02-15T02:10:37;4.20;;;3.80;;
15645;SDS011;7922;43.622;1.476;2024-02-15T02:13:03;5.20;;;3.77;;
15645;SDS011;7922;43.622;1.476;2024-02-15T02:15:29;5.67;;;4.33;;
15645;SDS011;7922;43.622;1.476;2024-02-15T02:17:54;4.67;;;3.97;;
15645;SDS011;7922;43.622;1.476;2024-02-15T02:20:19;6.57;;;4.43;;
15645;SDS011;7922;43.622;1.476;2024-02-15T02:22:46;6.13;;;3.70;;
15645;SDS011;7922;43.622;1.476;2024-02-15T02:25:13;7.47;;;4.43;;
15645;SDS011;7922;43.622;1.476;2024-02-15T02:27:38;6.30;;;3.80;;
15645;SDS011;7922;43.622;1.476;2024-02-15T02:30:04;6.17;;;4.23;;
15645;SDS011;7922;43.622;1.476;2024-02-15T02:32:36;8.07;;;3.97;;
15645;SDS011;7922;43.622;1.476;2024-02-15T02:35:02;5.47;;;4.00;;
15645;SDS011;7922;43.622;1.476;2024-02-15T02:37:27;6.53;;;3.70;;
15645;SDS011;7922;43.622;1.476;2024-02-15T02:39:53;4.90;;;3.57;;
15645;SDS011;7922;43.622;1.476;2024-02-15T02:42:18;4.67;;;3.40;;
15645;SDS011;7922;43.622;1.476;2024-02-15T02:44:43;3.23;;;2.93;;
15645;SDS011;7922;43.622;1.476;2024-02-15T02:47:09;5.17;;;3.23;;
15645;SDS011;7922;43.622;1.476;2024-02-15T02:49:37;5.10;;;3.50;;
15645;SDS011;7922;43.622;1.476;2024-02-15T02:52:03;5.83;;;3.30;;
15645;SDS011;7922;43.622;1.476;2024-02-15T02:54:28;3.70;;;2.53;;
15645;SDS011;7922;43.622;1.476;2024-02-15T02:56:54;3.73;;;3.00;;
15645;SDS011;7922;43.622;1.476;2024-02-15T02:59:19;4.50;;;3.10;;
15645;SDS011;7922;43.622;1.476;2024-02-15T03:01:44;3.47;;;3.00;;
15645;SDS011;7922;43.622;1.476;2024-02-15T03:04:14;3.40;;;2.80;;
15645;SDS011;7922;43.622;1.476;2024-02-15T03:06:40;6.60;;;3.00;;
15645;SDS011;7922;43.622;1.476;2024-02-15T03:09:05;4.40;;;2.80;;
15645;SDS011;7922;43.622;1.476;2024-02-15T03:11:30;3.60;;;3.30;;
15645;SDS011;7922;43.622;1.476;2024-02-15T03:13:56;6.77;;;3.73;;
15645;SDS011;7922;43.622;1.476;2024-02-15T03:16:22;4.10;;;3.50;;
15645;SDS011;7922;43.622;1.476;2024-02-15T03:18:47;4.90;;;3.30;;
15645;SDS011;7922;43.622;1.476;2024-02-15T03:21:12;5.80;;;3.80;;
15645;SDS011;7922;43.622;1.476;2024-02-15T03:23:38;4.67;;;3.60;;
15645;SDS011;7922;43.622;1.476;2024-02-15T03:26:03;6.80;;;4.03;;
15645;SDS011;7922;43.622;1.476;2024-02-15T03:28:30;7.20;;;3.77;;
15645;SDS011;7922;43.622;1.476;2024-02-15T03:30:56;5.03;;;3.90;;
15645;SDS011;7922;43.622;1.476;2024-02-15T03:33:21;4.93;;;3.87;;
15645;SDS011;7922;43.622;1.476;2024-02-15T03:35:46;8.23;;;4.57;;
15645;SDS011;7922;43.622;1.476;2024-02-15T03:38:11;5.07;;;3.73;;
15645;SDS011;7922;43.622;1.476;2024-02-15T03:40:37;5.17;;;3.87;;
15645;SDS011;7922;43.622;1.476;2024-02-15T03:43:02;5.60;;;3.77;;
15645;SDS011;7922;43.622;1.476;2024-02-15T03:45:27;4.83;;;4.20;;
15645;SDS011;7922;43.622;1.476;2024-02-15T03:47:53;5.27;;;3.90;;
15645;SDS011;7922;43.622;1.476;2024-02-15T03:50:19;5.00;;;3.70;;
15645;SDS011;7922;43.622;1.476;2024-02-15T03:52:45;5.47;;;3.53;;
15645;SDS011;7922;43.622;1.476;2024-02-15T03:55:10;4.50;;;3.90;;
15645;SDS011;7922;43.622;1.476;2024-02-15T03:57:39;5.93;;;3.67;;
15645;SDS011;7922;43.622;1.476;2024-02-15T04:00:05;6.10;;;3.80;;
15645;SDS011;7922;43.622;1.476;2024-02-15T04:02:31;5.43;;;3.63;;
15645;SDS011;7922;43.622;1.476;2024-02-15T04:04:56;4.37;;;3.77;;
15645;SDS011;7922;43.622;1.476;2024-02-15T04:07:22;4.17;;;3.70;;
15645;SDS011;7922;43.622;1.476;2024-02-15T04:09:48;5.33;;;3.73;;
15645;SDS011;7922;43.622;1.476;2024-02-15T04:12:14;6.07;;;3.73;;
15645;SDS011;7922;43.622;1.476;2024-02-15T04:14:41;8.63;;;4.10;;
15645;SDS011;7922;43.622;1.476;2024-02-15T04:17:08;5.57;;;4.27;;
15645;SDS011;7922;43.622;1.476;2024-02-15T04:19:33;6.63;;;3.87;;
15645;SDS011;7922;43.622;1.476;2024-02-15T04:21:58;7.37;;;3.97;;
15645;SDS011;7922;43.622;1.476;2024-02-15T04:24:27;6.90;;;3.97;;
15645;SDS011;7922;43.622;1.476;2024-02-15T04:26:53;5.20;;;4.33;;
15645;SDS011;7922;43.622;1.476;2024-02-15T04:29:18;3.90;;;3.50;;
15645;SDS011;7922;43.622;1.476;2024-02-15T04:31:43;6.83;;;4.43;;
15645;SDS011;7922;43.622;1.476;2024-02-15T04:34:08;5.70;;;4.00;;
15645;SDS011;7922;43.622;1.476;2024-02-15T04:36:34;4.73;;;3.77;;
15645;SDS011;7922;43.622;1.476;2024-02-15T04:38:59;4.57;;;3.70;;
15645;SDS011;7922;43.622;1.476;2024-02-15T04:41:25;5.57;;;3.70;;
15645;SDS011;7922;43.622;1.476;2024-02-15T04:43:50;4.67;;;3.60;;
15645;SDS011;7922;43.622;1.476;2024-02-15T04:46:16;4.63;;;3.43;;
15645;SDS011;7922;43.622;1.476;2024-02-15T04:48:41;4.17;;;3.20;;
15645;SDS011;7922;43.622;1.476;2024-02-15T04:51:07;4.80;;;3.63;;
15645;SDS011;7922;43.622;1.476;2024-02-15T04:53:32;7.07;;;4.07;;
15645;SDS011;7922;43.622;1.476;2024-02-15T04:55:58;4.33;;;3.93;;
15645;SDS011;7922;43.622;1.476;2024-02-15T04:58:23;4.40;;;3.77;;
15645;SDS011;7922;43.622;1.476;2024-02-15T05:00:48;4.33;;;3.83;;
15645;SDS011;7922;43.622;1.476;2024-02-15T05:03:13;4.80;;;4.00;;
15645;SDS011;7922;43.622;1.476;2024-02-15T05:05:39;5.17;;;4.10;;
15645;SDS011;7922;43.622;1.476;2024-02-15T05:08:04;4.50;;;4.07;;
15645;SDS011;7922;43.622;1.476;2024-02-15T05:10:30;4.33;;;3.80;;
15645;SDS011;7922;43.622;1.476;2024-02-15T05:12:55;5.27;;;4.10;;
15645;SDS011;7922;43.622;1.476;2024-02-15T05:15:20;5.43;;;4.27;;
15645;SDS011;7922;43.622;1.476;2024-02-15T05:17:48;5.70;;;4.80;;
15645;SDS011;7922;43.622;1.476;2024-02-15T05:20:13;5.67;;;4.30;;
15645;SDS011;7922;43.622;1.476;2024-02-15T05:22:40;5.07;;;4.40;;
15645;SDS011;7922;43.622;1.476;2024-02-15T05:25:06;5.33;;;4.43;;
15645;SDS011;7922;43.622;1.476;2024-02-15T05:27:32;5.83;;;4.27;;
15645;SDS011;7922;43.622;1.476;2024-02-15T05:29:57;6.97;;;4.30;;
15645;SDS011;7922;43.622;1.476;2024-02-15T05:32:22;6.03;;;4.20;;
15645;SDS011;7922;43.622;1.476;2024-02-15T05:34:48;5.37;;;4.13;;
15645;SDS011;7922;43.622;1.476;2024-02-15T05:37:14;6.23;;;3.73;;
15645;SDS011;7922;43.622;1.476;2024-02-15T05:39:39;5.80;;;4.17;;
15645;SDS011;7922;43.622;1.476;2024-02-15T05:42:04;4.63;;;3.90;;
15645;SDS011;7922;43.622;1.476;2024-02-15T05:44:30;4.87;;;4.30;;
15645;SDS011;7922;43.622;1.476;2024-02-15T05:46:55;7.00;;;4.17;;
15645;SDS011;7922;43.622;1.476;2024-02-15T05:49:20;5.23;;;4.03;;
15645;SDS011;7922;43.622;1.476;2024-02-15T05:51:46;5.03;;;4.50;;
15645;SDS011;7922;43.622;1.476;2024-02-15T05:54:11;6.37;;;4.27;;
15645;SDS011;7922;43.622;1.476;2024-02-15T05:56:36;5.23;;;4.57;;
15645;SDS011;7922;43.622;1.476;2024-02-15T05:59:01;4.83;;;4.13;;
15645;SDS011;7922;43.622;1.476;2024-02-15T06:01:27;4.47;;;4.00;;
15645;SDS011;7922;43.622;1.476;2024-02-15T06:03:52;5.17;;;4.33;;
15645;SDS011;7922;43.622;1.476;2024-02-15T06:06:17;5.50;;;4.43;;
15645;SDS011;7922;43.622;1.476;2024-02-15T06:08:45;4.77;;;4.27;;
15645;SDS011;7922;43.622;1.476;2024-02-15T06:11:11;5.57;;;4.63;;
15645;SDS011;7922;43.622;1.476;2024-02-15T06:13:36;5.00;;;4.50;;
15645;SDS011;7922;43.622;1.476;2024-02-15T06:16:02;5.40;;;4.10;;
15645;SDS011;7922;43.622;1.476;2024-02-15T06:18:28;5.33;;;4.70;;
15645;SDS011;7922;43.622;1.476;2024-02-15T06:20:57;5.57;;;4.53;;
15645;SDS011;7922;43.622;1.476;2024-02-15T06:23:23;6.60;;;4.57;;
15645;SDS011;7922;43.622;1.476;2024-02-15T06:25:50;5.73;;;4.60;;
15645;SDS011;7922;43.622;1.476;2024-02-15T06:28:17;6.63;;;4.70;;
15645;SDS011;7922;43.622;1.476;2024-02-15T06:30:42;5.37;;;4.77;;
15645;SDS011;7922;43.622;1.476;2024-02-15T06:33:07;8.07;;;4.60;;
15645;SDS011;7922;43.622;1.476;2024-02-15T06:35:33;6.30;;;4.23;;
15645;SDS011;7922;43.622;1.476;2024-02-15T06:37:58;6.27;;;4.93;;
15645;SDS011;7922;43.622;1.476;2024-02-15T06:40:24;7.60;;;4.70;;
15645;SDS011;7922;43.622;1.476;2024-02-15T06:42:49;4.97;;;4.43;;
15645;SDS011;7922;43.622;1.476;2024-02-15T06:45:15;5.43;;;4.50;;
15645;SDS011;7922;43.622;1.476;2024-02-15T06:47:41;5.23;;;4.07;;
15645;SDS011;7922;43.622;1.476;2024-02-15T06:50:07;4.63;;;4.17;;
15645;SDS011;7922;43.622;1.476;2024-02-15T06:52:35;4.67;;;3.90;;
15645;SDS011;7922;43.622;1.476;2024-02-15T06:55:01;3.90;;;3.43;;
15645;SDS011;7922;43.622;1.476;2024-02-15T06:57:26;4.50;;;3.47;;
15645;SDS011;7922;43.622;1.476;2024-02-15T06:59:51;5.47;;;4.00;;
15645;SDS011;7922;43.622;1.476;2024-02-15T07:02:17;5.73;;;3.83;;
15645;SDS011;7922;43.622;1.476;2024-02-15T07:04:43;3.73;;;3.10;;
15645;SDS011;7922;43.622;1.476;2024-02-15T07:07:09;4.80;;;3.60;;
15645;SDS011;7922;43.622;1.476;2024-02-15T07:09:35;4.67;;;3.63;;
15645;SDS011;7922;43.622;1.476;2024-02-15T07:12:00;4.70;;;3.60;;
15645;SDS011;7922;43.622;1.476;2024-02-15T07:14:25;4.17;;;3.33;;
15645;SDS011;7922;43.622;1.476;2024-02-15T07:16:50;4.00;;;3.53;;
15645;SDS011;7922;43.622;1.476;2024-02-15T07:19:16;4.30;;;3.37;;
15645;SDS011;7922;43.622;1.476;2024-02-15T07:21:43;5.00;;;3.80;;
15645;SDS011;7922;43.622;1.476;2024-02-15T07:24:08;5.47;;;3.93;;
15645;SDS011;7922;43.622;1.476;2024-02-15T07:26:34;4.67;;;3.90;;
15645;SDS011;7922;43.622;1.476;2024-02-15T07:28:59;4.03;;;3.63;;
15645;SDS011;7922;43.622;1.476;2024-02-15T07:31:27;5.83;;;3.87;;
15645;SDS011;7922;43.622;1.476;2024-02-15T07:33:53;4.07;;;3.67;;
15645;SDS011;7922;43.622;1.476;2024-02-15T07:36:19;4.23;;;3.83;;
15645;SDS011;7922;43.622;1.476;2024-02-15T07:38:48;6.87;;;4.20;;
15645;SDS011;7922;43.622;1.476;2024-02-15T07:41:17;5.67;;;4.37;;
15645;SDS011;7922;43.622;1.476;2024-02-15T07:43:42;4.93;;;4.00;;
15645;SDS011;7922;43.622;1.476;2024-02-15T07:46:11;4.97;;;4.53;;
15645;SDS011;7922;43.622;1.476;2024-02-15T07:48:37;4.70;;;3.93;;
15645;SDS011;7922;43.622;1.476;2024-02-15T07:51:02;3.63;;;3.33;;
15645;SDS011;7922;43.622;1.476;2024-02-15T07:53:27;4.63;;;3.70;;
15645;SDS011;7922;43.622;1.476;2024-02-15T07:55:53;4.57;;;3.83;;
15645;SDS011;7922;43.622;1.476;2024-02-15T07:58:18;5.10;;;3.90;;
15645;SDS011;7922;43.622;1.476;2024-02-15T08:00:44;3.93;;;3.47;;
15645;SDS011;7922;43.622;1.476;2024-02-15T08:03:10;4.40;;;3.80;;
15645;SDS011;7922;43.622;1.476;2024-02-15T08:05:35;5.37;;;4.07;;
15645;SDS011;7922;43.622;1.476;2024-02-15T08:08:01;3.63;;;3.33;;
15645;SDS011;7922;43.622;1.476;2024-02-15T08:10:26;3.93;;;3.57;;
15645;SDS011;7922;43.622;1.476;2024-02-15T08:12:51;3.43;;;3.07;;
15645;SDS011;7922;43.622;1.476;2024-02-15T08:15:16;4.23;;;3.40;;
15645;SDS011;7922;43.622;1.476;2024-02-15T08:17:42;3.87;;;3.33;;
15645;SDS011;7922;43.622;1.476;2024-02-15T08:20:12;4.77;;;3.30;;
15645;SDS011;7922;43.622;1.476;2024-02-15T08:22:39;3.50;;;3.20;;
15645;SDS011;7922;43.622;1.476;2024-02-15T08:25:08;4.67;;;3.90;;
15645;SDS011;7922;43.622;1.476;2024-02-15T08:27:34;5.83;;;3.50;;
15645;SDS011;7922;43.622;1.476;2024-02-15T08:29:59;3.87;;;3.47;;
15645;SDS011;7922;43.622;1.476;2024-02-15T08:32:25;3.90;;;3.50;;
15645;SDS011;7922;43.622;1.476;2024-02-15T08:34:50;4.40;;;3.60;;
15645;SDS011;7922;43.622;1.476;2024-02-15T08:37:15;4.23;;;3.20;;
15645;SDS011;7922;43.622;1.476;2024-02-15T08:39:40;4.77;;;4.00;;
15645;SDS011;7922;43.622;1.476;2024-02-15T08:42:06;6.53;;;3.63;;
15645;SDS011;7922;43.622;1.476;2024-02-15T08:44:31;4.27;;;3.87;;
15645;SDS011;7922;43.622;1.476;2024-02-15T08:46:56;4.80;;;3.73;;
15645;SDS011;7922;43.622;1.476;2024-02-15T08:49:22;3.97;;;3.10;;
15645;SDS011;7922;43.622;1.476;2024-02-15T08:51:47;4.50;;;3.30;;
15645;SDS011;7922;43.622;1.476;2024-02-15T08:54:12;3.37;;;2.87;;
15645;SDS011;7922;43.622;1.476;2024-02-15T08:56:37;3.97;;;2.63;;
15645;SDS011;7922;43.622;1.476;2024-02-15T08:59:05;4.30;;;3.20;;
15645;SDS011;7922;43.622;1.476;2024-02-15T09:01:30;3.13;;;2.80;;
15645;SDS011;7922;43.622;1.476;2024-02-15T09:03:57;3.20;;;2.90;;
15645;SDS011;7922;43.622;1.476;2024-02-15T09:06:22;2.53;;;2.33;;
15645;SDS011;7922;43.622;1.476;2024-02-15T09:08:47;3.00;;;2.73;;
15645;SDS011;7922;43.622;1.476;2024-02-15T09:11:12;3.37;;;2.70;;
15645;SDS011;7922;43.622;1.476;2024-02-15T09:13:38;3.57;;;2.67;;
15645;SDS011;7922;43.622;1.476;2024-02-15T09:16:03;2.60;;;2.40;;
15645;SDS011;7922;43.622;1.476;2024-02-15T09:18:28;4.00;;;2.80;;
15645;SDS011;7922;43.622;1.476;2024-02-15T09:20:54;2.77;;;2.57;;
15645;SDS011;7922;43.622;1.476;2024-02-15T09:23:19;3.70;;;2.53;;
15645;SDS011;7922;43.622;1.476;2024-02-15T09:25:44;2.73;;;2.33;;
15645;SDS011;7922;43.622;1.476;2024-02-15T09:28:10;3.27;;;2.40;;
15645;SDS011;7922;43.622;1.476;2024-02-15T09:30:35;2.77;;;2.40;;
15645;SDS011;7922;43.622;1.476;2024-02-15T09:33:01;2.43;;;2.23;;
15645;SDS011;7922;43.622;1.476;2024-02-15T09:35:27;4.00;;;2.60;;
15645;SDS011;7922;43.622;1.476;2024-02-15T09:37:52;2.77;;;2.33;;
15645;SDS011;7922;43.622;1.476;2024-02-15T09:40:17;2.97;;;2.43;;
15645;SDS011;7922;43.622;1.476;2024-02-15T09:42:44;3.27;;;2.53;;
15645;SDS011;7922;43.622;1.476;2024-02-15T09:45:10;3.03;;;2.73;;
15645;SDS011;7922;43.622;1.476;2024-02-15T09:47:37;4.03;;;3.13;;
15645;SDS011;7922;43.622;1.476;2024-02-15T09:50:10;3.20;;;2.67;;
15645;SDS011;7922;43.622;1.476;2024-02-15T09:52:42;3.10;;;2.80;;
15645;SDS011;7922;43.622;1.476;2024-02-15T09:55:09;4.60;;;3.10;;
15645;SDS011;7922;43.622;1.476;2024-02-15T09:57:36;4.00;;;2.67;;
15645;SDS011;7922;43.622;1.476;2024-02-15T10:00:01;3.40;;;2.47;;
15645;SDS011;7922;43.622;1.476;2024-02-15T10:02:27;3.17;;;2.57;;
15645;SDS011;7922;43.622;1.476;2024-02-15T10:04:53;3.90;;;3.00;;
15645;SDS011;7922;43.622;1.476;2024-02-15T10:07:19;3.13;;;2.60;;
15645;SDS011;7922;43.622;1.476;2024-02-15T10:09:44;3.47;;;3.00;;
15645;SDS011;7922;43.622;1.476;2024-02-15T10:12:09;5.60;;;3.13;;
15645;SDS011;7922;43.622;1.476;2024-02-15T10:14:35;3.17;;;2.87;;
15645;SDS011;7922;43.622;1.476;2024-02-15T10:17:07;3.50;;;2.93;;
15645;SDS011;7922;43.622;1.476;2024-02-15T10:19:33;4.50;;;2.93;;
15645;SDS011;7922;43.622;1.476;2024-02-15T10:22:05;3.20;;;2.90;;
15645;SDS011;7922;43.622;1.476;2024-02-15T10:24:31;4.93;;;2.97;;
15645;SDS011;7922;43.622;1.476;2024-02-15T10:27:00;4.30;;;3.67;;
15645;SDS011;7922;43.622;1.476;2024-02-15T10:29:27;5.33;;;4.07;;
15645;SDS011;7922;43.622;1.476;2024-02-15T10:31:53;5.37;;;4.10;;
15645;SDS011;7922;43.622;1.476;2024-02-15T10:34:19;4.87;;;4.07;;
15645;SDS011;7922;43.622;1.476;2024-02-15T10:36:45;4.87;;;3.67;;
15645;SDS011;7922;43.622;1.476;2024-02-15T10:39:11;6.07;;;4.27;;
15645;SDS011;7922;43.622;1.476;2024-02-15T10:41:37;4.20;;;3.83;;
15645;SDS011;7922;43.622;1.476;2024-02-15T10:44:03;3.63;;;3.33;;
15645;SDS011;7922;43.622;1.476;2024-02-15T10:46:29;3.80;;;3.10;;
15645;SDS011;7922;43.622;1.476;2024-02-15T10:48:55;3.13;;;2.80;;
15645;SDS011;7922;43.622;1.476;2024-02-15T10:51:20;5.87;;;2.80;;
15645;SDS011;7922;43.622;1.476;2024-02-15T10:53:51;4.10;;;2.43;;
15645;SDS011;7922;43.622;1.476;2024-02-15T10:56:31;4.93;;;2.50;;
15645;SDS011;7922;43.622;1.476;2024-02-15T10:59:17;2.80;;;2.60;;
15645;SDS011;7922;43.622;1.476;2024-02-15T11:01:43;2.27;;;1.93;;
15645;SDS011;7922;43.622;1.476;2024-02-15T11:04:11;2.13;;;1.93;;
15645;SDS011;7922;43.622;1.476;2024-02-15T11:06:39;2.60;;;2.40;;
15645;SDS011;7922;43.622;1.476;2024-02-15T11:09:08;3.40;;;2.50;;
15645;SDS011;7922;43.622;1.476;2024-02-15T11:11:37;2.10;;;2.00;;
15645;SDS011;7922;43.622;1.476;2024-02-15T11:14:22;4.00;;;2.50;;
15645;SDS011;7922;43.622;1.476;2024-02-15T11:16:49;6.70;;;2.40;;
15645;SDS011;7922;43.622;1.476;2024-02-15T11:19:56;4.57;;;2.60;;
15645;SDS011;7922;43.622;1.476;2024-02-15T11:22:09;4.07;;;2.40;;
15645;SDS011;7922;43.622;1.476;2024-02-15T11:24:35;4.43;;;2.67;;
15645;SDS011;7922;43.622;1.476;2024-02-15T11:27:02;3.93;;;2.27;;
15645;SDS011;7922;43.622;1.476;2024-02-15T11:32:33;2.33;;;2.13;;
15645;SDS011;7922;43.622;1.476;2024-02-15T11:35:07;3.23;;;2.20;;
15645;SDS011;7922;43.622;1.476;2024-02-15T11:43:05;2.10;;;1.80;;
15645;SDS011;7922;43.622;1.476;2024-02-15T11:45:30;4.07;;;1.93;;
15645;SDS011;7922;43.622;1.476;2024-02-15T11:47:56;3.27;;;2.00;;
15645;SDS011;7922;43.622;1.476;2024-02-15T11:50:21;3.03;;;1.97;;
15645;SDS011;7922;43.622;1.476;2024-02-15T11:52:48;2.67;;;1.97;;
15645;SDS011;7922;43.622;1.476;2024-02-15T11:55:17;2.30;;;1.70;;
15645;SDS011;7922;43.622;1.476;2024-02-15T11:57:44;5.57;;;1.80;;
15645;SDS011;7922;43.622;1.476;2024-02-15T12:00:24;3.80;;;1.90;;
15645;SDS011;7922;43.622;1.476;2024-02-15T12:02:49;2.33;;;1.70;;
15645;SDS011;7922;43.622;1.476;2024-02-15T12:05:14;2.57;;;1.57;;
15645;SDS011;7922;43.622;1.476;2024-02-15T12:07:41;3.73;;;2.23;;
15645;SDS011;7922;43.622;1.476;2024-02-15T12:10:18;3.43;;;1.80;;
15645;SDS011;7922;43.622;1.476;2024-02-15T12:12:50;3.83;;;2.60;;
15645;SDS011;7922;43.622;1.476;2024-02-15T12:15:16;2.97;;;1.77;;
15645;SDS011;7922;43.622;1.476;2024-02-15T12:17:41;5.53;;;2.33;;
15645;SDS011;7922;43.622;1.476;2024-02-15T12:20:07;3.70;;;2.10;;
15645;SDS011;7922;43.622;1.476;2024-02-15T12:22:36;4.00;;;2.17;;
15645;SDS011;7922;43.622;1.476;2024-02-15T12:25:04;2.97;;;2.00;;
15645;SDS011;7922;43.622;1.476;2024-02-15T12:27:30;2.10;;;1.90;;
15645;SDS011;7922;43.622;1.476;2024-02-15T12:29:56;4.37;;;2.00;;
15645;SDS011;7922;43.622;1.476;2024-02-15T12:32:22;3.70;;;2.10;;
15645;SDS011;7922;43.622;1.476;2024-02-15T12:34:48;5.43;;;2.60;;
15645;SDS011;7922;43.622;1.476;2024-02-15T12:37:13;4.00;;;2.43;;
15645;SDS011;7922;43.622;1.476;2024-02-15T12:39:38;3.83;;;2.37;;
15645;SDS011;7922;43.622;1.476;2024-02-15T12:42:04;5.20;;;2.17;;
15645;SDS011;7922;43.622;1.476;2024-02-15T12:44:31;2.87;;;1.97;;
15645;SDS011;7922;43.622;1.476;2024-02-15T12:46:57;2.10;;;1.90;;
15645;SDS011;7922;43.622;1.476;2024-02-15T12:51:51;4.00;;;2.10;;
15645;SDS011;7922;43.622;1.476;2024-02-15T12:54:21;2.73;;;1.83;;
15645;SDS011;7922;43.622;1.476;2024-02-15T12:56:47;2.97;;;1.77;;
15645;SDS011;7922;43.622;1.476;2024-02-15T12:59:12;3.33;;;2.00;;
15645;SDS011;7922;43.622;1.476;2024-02-15T13:01:38;4.03;;;1.73;;
15645;SDS011;7922;43.622;1.476;2024-02-15T13:04:03;2.77;;;1.53;;
15645;SDS011;7922;43.622;1.476;2024-02-15T13:06:28;1.97;;;1.77;;
15645;SDS011;7922;43.622;1.476;2024-02-15T13:08:54;1.60;;;1.50;;
15645;SDS011;7922;43.622;1.476;2024-02-15T13:11:19;2.00;;;1.83;;
15645;SDS011;7922;43.622;1.476;2024-02-15T13:13:44;2.77;;;1.40;;
15645;SDS011;7922;43.622;1.476;2024-02-15T13:16:09;2.13;;;1.87;;
15645;SDS011;7922;43.622;1.476;2024-02-15T13:18:35;2.40;;;1.80;;
15645;SDS011;7922;43.622;1.476;2024-02-15T13:21:00;4.57;;;2.00;;
15645;SDS011;7922;43.622;1.476;2024-02-15T13:23:25;2.67;;;1.43;;
15645;SDS011;7922;43.622;1.476;2024-02-15T13:25:51;3.67;;;1.73;;
15645;SDS011;7922;43.622;1.476;2024-02-15T13:28:16;3.03;;;1.93;;
15645;SDS011;7922;43.622;1.476;2024-02-15T13:30:42;3.13;;;2.20;;
15645;SDS011;7922;43.622;1.476;2024-02-15T13:33:07;2.70;;;1.80;;
15645;SDS011;7922;43.622;1.476;2024-02-15T13:35:33;2.27;;;1.40;;
15645;SDS011;7922;43.622;1.476;2024-02-15T13:37:58;3.10;;;1.67;;
15645;SDS011;7922;43.622;1.476;2024-02-15T13:40:24;2.90;;;1.73;;
15645;SDS011;7922;43.622;1.476;2024-02-15T13:42:50;2.67;;;1.77;;
15645;SDS011;7922;43.622;1.476;2024-02-15T13:45:16;2.23;;;1.40;;
15645;SDS011;7922;43.622;1.476;2024-02-15T13:47:45;2.67;;;1.53;;
15645;SDS011;7922;43.622;1.476;2024-02-15T13:50:11;2.60;;;1.50;;
15645;SDS011;7922;43.622;1.476;2024-02-15T13:52:37;3.97;;;1.70;;
15645;SDS011;7922;43.622;1.476;2024-02-15T13:55:02;1.97;;;1.70;;
15645;SDS011;7922;43.622;1.476;2024-02-15T13:57:28;2.23;;;1.60;;
15645;SDS011;7922;43.622;1.476;2024-02-15T13:59:53;2.60;;;1.53;;
15645;SDS011;7922;43.622;1.476;2024-02-15T14:02:18;3.23;;;1.43;;
15645;SDS011;7922;43.622;1.476;2024-02-15T14:04:43;2.67;;;1.53;;
15645;SDS011;7922;43.622;1.476;2024-02-15T14:07:09;1.63;;;1.43;;
15645;SDS011;7922;43.622;1.476;2024-02-15T14:09:34;1.63;;;1.50;;
15645;SDS011;7922;43.622;1.476;2024-02-15T14:11:59;3.37;;;1.67;;
15645;SDS011;7922;43.622;1.476;2024-02-15T14:14:28;2.43;;;1.60;;
15645;SDS011;7922;43.622;1.476;2024-02-15T14:16:53;2.53;;;1.60;;
15645;SDS011;7922;43.622;1.476;2024-02-15T14:19:18;1.57;;;1.30;;
15645;SDS011;7922;43.622;1.476;2024-02-15T14:21:43;2.60;;;1.53;;
15645;SDS011;7922;43.622;1.476;2024-02-15T14:24:09;2.13;;;1.20;;
15645;SDS011;7922;43.622;1.476;2024-02-15T14:26:37;2.07;;;1.43;;
15645;SDS011;7922;43.622;1.476;2024-02-15T14:29:02;1.97;;;1.30;;
15645;SDS011;7922;43.622;1.476;2024-02-15T14:31:27;2.33;;;1.57;;
15645;SDS011;7922;43.622;1.476;2024-02-15T14:33:53;1.67;;;1.40;;
15645;SDS011;7922;43.622;1.476;2024-02-15T14:36:19;1.60;;;1.50;;
15645;SDS011;7922;43.622;1.476;2024-02-15T14:38:48;2.27;;;1.60;;
15645;SDS011;7922;43.622;1.476;2024-02-15T14:41:13;2.80;;;1.80;;
15645;SDS011;7922;43.622;1.476;2024-02-15T14:43:39;2.70;;;1.70;;
15645;SDS011;7922;43.622;1.476;2024-02-15T14:46:05;2.43;;;1.57;;
15645;SDS011;7922;43.622;1.476;2024-02-15T14:48:30;2.27;;;1.80;;
15645;SDS011;7922;43.622;1.476;2024-02-15T14:50:56;4.70;;;2.20;;
15645;SDS011;7922;43.622;1.476;2024-02-15T14:53:22;2.47;;;1.90;;
15645;SDS011;7922;43.622;1.476;2024-02-15T14:55:47;2.90;;;1.80;;
15645;SDS011;7922;43.622;1.476;2024-02-15T14:58:12;2.30;;;1.67;;
15645;SDS011;7922;43.622;1.476;2024-02-15T15:00:41;2.43;;;1.90;;
15645;SDS011;7922;43.622;1.476;2024-02-15T15:03:06;3.20;;;1.70;;
15645;SDS011;7922;43.622;1.476;2024-02-15T15:05:32;2.87;;;1.80;;